createdAt,value
2023-02-03T00:01:38.351Z,99927.59
2023-02-03T00:03:40.741Z,99924.06
2023-02-03T00:05:43.501Z,99923.22
2023-02-03T00:07:45.843Z,99925.00
2023-02-03T00:09:48.330Z,99933.88
2023-02-03T00:11:50.440Z,99944.59
2023-02-03T00:13:55.482Z,99933.00
2023-02-03T00:15:57.641Z,99941.06
2023-02-03T00:17:59.799Z,99938.38
2023-02-03T00:20:01.938Z,99947.25
2023-02-03T00:22:04.076Z,99949.94
2023-02-03T00:24:06.176Z,99957.06
2023-02-03T00:26:16.127Z,99957.06
2023-02-03T00:28:21.807Z,99963.25
2023-02-03T00:30:24.508Z,99964.19
2023-02-03T00:32:27.243Z,99971.25
2023-02-03T00:34:30.809Z,99971.31
2023-02-03T00:36:33.214Z,99974.91
2023-02-03T00:38:35.848Z,99978.44
2023-02-03T00:40:37.928Z,99980.25
2023-02-03T00:42:40.059Z,99982.03
2023-02-03T00:44:42.137Z,99976.69
2023-02-03T00:46:44.273Z,99986.47
2023-02-03T00:48:46.529Z,99979.41
2023-02-03T00:50:48.895Z,99983.81
2023-02-03T00:52:51.061Z,99980.25
2023-02-03T00:54:55.949Z,99978.50
2023-02-03T00:56:58.004Z,99983.81
2023-02-03T00:59:00.213Z,99985.66
2023-02-03T01:01:02.309Z,99986.50
2023-02-03T01:03:04.618Z,99989.16
2023-02-03T01:05:07.362Z,99990.03
2023-02-03T01:07:12.397Z,99992.69
2023-02-03T01:09:14.454Z,99991.81
2023-02-03T01:11:21.567Z,99998.94
2023-02-03T01:13:23.814Z,99991.88
2023-02-03T01:15:25.887Z,100001.63
2023-02-03T01:17:28.340Z,100003.34
2023-02-03T01:19:33.689Z,99998.97
2023-02-03T01:21:36.593Z,100000.69
2023-02-03T01:23:39.014Z,100005.16
2023-02-03T01:25:41.088Z,100001.63
2023-02-03T01:27:43.444Z,100006.03
2023-02-03T01:29:45.441Z,100008.66
2023-02-03T01:31:47.743Z,100015.75
2023-02-03T01:33:51.677Z,100017.53
2023-02-03T01:35:53.945Z,100027.28
2023-02-03T01:37:55.899Z,100028.22
2023-02-03T01:39:58.039Z,100034.44
2023-02-03T01:42:01.912Z,100045.06
2023-02-03T01:44:35.999Z,100047.75
2023-02-03T01:46:45.211Z,100045.97
2023-02-03T01:48:47.138Z,100049.50
2023-02-03T01:50:49.269Z,100048.56
2023-02-03T01:52:57.168Z,100059.22
2023-02-03T01:55:03.925Z,100064.50
2023-02-03T01:57:13.646Z,100070.69
2023-02-03T01:59:22.066Z,100070.69
2023-02-03T02:01:24.712Z,100060.03
2023-02-03T02:03:44.338Z,100065.34
2023-02-03T02:05:50.812Z,100063.59
2023-02-03T02:07:53.485Z,100061.78
2023-02-03T02:09:56.091Z,100070.66
2023-02-03T02:11:58.221Z,100068.88
2023-02-03T02:14:03.136Z,100074.22
2023-02-03T02:16:27.436Z,100066.22
2023-02-03T02:18:42.131Z,100075.94
2023-02-03T02:20:56.391Z,100074.16
2023-02-03T02:23:30.283Z,100078.56
2023-02-03T02:26:16.939Z,100090.16
2023-02-03T02:28:56.627Z,100085.66
2023-02-03T02:31:36.468Z,100077.69
2023-02-03T02:33:55.260Z,100082.16
2023-02-03T02:36:03.640Z,100076.78
2023-02-03T02:38:32.174Z,100075.00
2023-02-03T02:40:44.697Z,100087.47
2023-02-03T02:43:26.834Z,100091.03
2023-02-03T02:45:45.770Z,100089.19
2023-02-03T02:47:48.888Z,100081.19
2023-02-03T02:50:04.044Z,100079.47
2023-02-03T02:52:08.978Z,100089.22
2023-02-03T02:54:16.783Z,100098.09
2023-02-03T02:56:19.861Z,100086.53
2023-02-03T02:58:25.167Z,100088.31
2023-02-03T03:00:31.982Z,100092.75
2023-02-03T03:02:36.218Z,100087.41
2023-02-03T03:04:39.141Z,100088.22
2023-02-03T03:06:54.801Z,100088.19
2023-02-03T03:08:58.990Z,100088.25
2023-02-03T03:11:03.707Z,100091.78
2023-02-03T03:13:12.561Z,100090.91
2023-02-03T03:15:23.192Z,100096.25
2023-02-03T03:17:31.749Z,100093.56
2023-02-03T03:19:40.229Z,100092.72
2023-02-03T03:22:02.963Z,100106.00
2023-02-03T03:24:11.044Z,100110.44
2023-02-03T03:26:19.467Z,100106.91
2023-02-03T03:28:28.797Z,100113.13
2023-02-03T03:30:36.429Z,100116.66
2023-02-03T03:32:39.220Z,100114.88
2023-02-03T03:34:42.561Z,100130.00
2023-02-03T03:37:05.748Z,100130.91
2023-02-03T03:39:28.971Z,100130.00
2023-02-03T03:41:55.338Z,100127.34
2023-02-03T03:44:04.393Z,100131.75
2023-02-03T03:46:15.278Z,100118.47
2023-02-03T03:48:27.728Z,100120.25
2023-02-03T03:50:35.493Z,100124.66
2023-02-03T03:52:39.127Z,100121.13
2023-02-03T03:54:42.848Z,100120.19
2023-02-03T03:57:06.619Z,100118.47
2023-02-03T03:59:11.528Z,100113.13
2023-02-03T04:01:16.072Z,100112.22
2023-02-03T04:03:25.748Z,100108.72
2023-02-03T04:05:29.059Z,100109.56
2023-02-03T04:07:43.671Z,100105.16
2023-02-03T04:09:45.929Z,100108.69
2023-02-03T04:12:02.955Z,100112.19
2023-02-03T04:14:05.541Z,100112.22
2023-02-03T04:16:07.983Z,100110.44
2023-02-03T04:18:16.435Z,100106.91
2023-02-03T04:20:18.703Z,100113.09
2023-02-03T04:22:22.043Z,100106.84
2023-02-03T04:24:27.130Z,100108.69
2023-02-03T04:26:29.349Z,100113.09
2023-02-03T04:28:31.613Z,100109.56
2023-02-03T04:30:34.369Z,100118.47
2023-02-03T04:32:36.636Z,100119.34
2023-02-03T04:34:38.953Z,100122.00
2023-02-03T04:36:41.146Z,100117.53
2023-02-03T04:38:43.328Z,100123.78
2023-02-03T04:40:46.430Z,100124.69
2023-02-03T04:42:48.721Z,100132.72
2023-02-03T04:44:51.593Z,100129.16
2023-02-03T04:46:53.913Z,100139.78
2023-02-03T04:48:56.305Z,100135.31
2023-02-03T04:51:06.841Z,100135.38
2023-02-03T04:53:09.192Z,100143.31
2023-02-03T04:55:11.448Z,100134.44
2023-02-03T04:57:13.560Z,100145.13
2023-02-03T04:59:15.798Z,100141.56
2023-02-03T05:01:18.461Z,100145.09
2023-02-03T05:03:20.733Z,100145.13
2023-02-03T05:05:23.028Z,100132.69
2023-02-03T05:07:25.713Z,100128.28
2023-02-03T05:09:28.570Z,100125.63
2023-02-03T05:11:30.882Z,100126.47
2023-02-03T05:13:32.936Z,100124.72
2023-02-03T05:15:35.398Z,100114.06
2023-02-03T05:17:40.095Z,100121.16
2023-02-03T05:19:44.976Z,100116.69
2023-02-03T05:21:47.072Z,100110.53
2023-02-03T05:23:49.255Z,100124.75
2023-02-03T05:25:52.486Z,100128.28
2023-02-03T05:27:54.881Z,100131.81
2023-02-03T05:29:57.096Z,100139.84
2023-02-03T05:31:59.310Z,100145.16
2023-02-03T05:34:03.473Z,100161.13
2023-02-03T05:36:06.025Z,100154.03
2023-02-03T05:38:08.300Z,100162.03
2023-02-03T05:40:29.391Z,100164.66
2023-02-03T05:42:31.525Z,100175.34
2023-02-03T05:44:33.580Z,100176.19
2023-02-03T05:46:35.961Z,100176.25
2023-02-03T05:48:38.086Z,100179.78
2023-02-03T05:50:43.173Z,100177.09
2023-02-03T05:52:45.638Z,100172.69
2023-02-03T05:54:47.784Z,100174.47
2023-02-03T05:56:49.835Z,100180.69
2023-02-03T05:58:53.642Z,100182.44
2023-02-03T06:00:55.963Z,100186.03
2023-02-03T06:03:02.571Z,100198.41
2023-02-03T06:05:05.214Z,100192.19
2023-02-03T06:07:07.447Z,100195.78
2023-02-03T06:09:09.609Z,100203.75
2023-02-03T06:11:12.123Z,100211.72
2023-02-03T06:13:16.340Z,100209.94
2023-02-03T06:15:19.140Z,100211.72
2023-02-03T06:17:21.252Z,100219.72
2023-02-03T06:19:23.227Z,100210.84
2023-02-03T06:21:25.819Z,100211.69
2023-02-03T06:23:28.211Z,100217.03
2023-02-03T06:25:32.833Z,100217.94
2023-02-03T06:27:35.927Z,100212.59
2023-02-03T06:29:38.065Z,100216.16
2023-02-03T06:31:40.296Z,100212.63
2023-02-03T06:33:42.499Z,100222.34
2023-02-03T06:35:44.808Z,100214.38
2023-02-03T06:37:46.912Z,100218.81
2023-02-03T06:39:49.065Z,100217.03
2023-02-03T06:41:52.177Z,100219.69
2023-02-03T06:43:54.367Z,100219.72
2023-02-03T06:45:57.170Z,100226.78
2023-02-03T06:47:59.735Z,100224.13
2023-02-03T06:50:02.101Z,100220.56
2023-02-03T06:52:04.305Z,100233.00
2023-02-03T06:54:07.852Z,100229.44
2023-02-03T06:56:09.849Z,100235.66
2023-02-03T06:58:12.072Z,100234.75
2023-02-03T07:00:18.811Z,100240.09
2023-02-03T07:02:21.960Z,100234.78
2023-02-03T07:04:24.214Z,100235.66
2023-02-03T07:06:29.566Z,100241.00
2023-02-03T07:08:31.756Z,100240.97
2023-02-03T07:10:33.900Z,100242.72
2023-02-03T07:12:36.934Z,100240.94
2023-02-03T07:14:39.643Z,100246.22
2023-02-03T07:16:41.598Z,100239.97
2023-02-03T07:18:47.260Z,100241.75
2023-02-03T07:20:51.555Z,100240.75
2023-02-03T07:22:55.998Z,100241.63
2023-02-03T07:24:57.947Z,100249.56
2023-02-03T07:27:00.055Z,100242.47
2023-02-03T07:29:02.116Z,100241.56
2023-02-03T07:31:08.361Z,100238.84
2023-02-03T07:33:10.458Z,100235.28
2023-02-03T07:35:12.474Z,100240.59
2023-02-03T07:37:14.464Z,100242.31
2023-02-03T07:39:16.852Z,100244.06
2023-02-03T07:41:19.048Z,100240.56
2023-02-03T07:43:21.358Z,100237.91
2023-02-03T07:45:25.154Z,100243.13
2023-02-03T07:47:27.332Z,100238.53
2023-02-03T07:49:29.352Z,100234.88
2023-02-03T07:51:32.089Z,100232.16
2023-02-03T07:53:37.241Z,100235.66
2023-02-03T07:55:40.186Z,100222.28
2023-02-03T07:57:43.849Z,100215.19
2023-02-03T07:59:46.676Z,100208.84
2023-02-03T08:01:49.076Z,100200.78
2023-02-03T08:03:53.035Z,100207.81
2023-02-03T08:05:56.678Z,100198.75
2023-02-03T08:07:59.596Z,100198.72
2023-02-03T08:10:02.361Z,100193.28
2023-02-03T08:12:07.204Z,100196.78
2023-02-03T08:14:09.358Z,100194.94
2023-02-03T08:16:11.552Z,100196.63
2023-02-03T08:18:13.622Z,100191.25
2023-02-03T08:20:17.179Z,100205.41
2023-02-03T08:22:19.602Z,100198.16
2023-02-03T08:24:21.811Z,100191.91
2023-02-03T08:26:24.454Z,100193.63
2023-02-03T08:28:27.287Z,100192.63
2023-02-03T08:30:29.764Z,100192.50
2023-02-03T08:32:33.518Z,100194.19
2023-02-03T08:34:35.756Z,100191.47
2023-02-03T08:36:40.365Z,100193.91
2023-02-03T08:38:42.634Z,100196.59
2023-02-03T08:40:51.133Z,100207.22
2023-02-03T08:42:53.759Z,100197.47
2023-02-03T08:44:56.805Z,100199.38
2023-02-03T08:47:00.149Z,100188.38
2023-02-03T08:49:03.716Z,100194.59
2023-02-03T08:51:17.257Z,100196.41
2023-02-03T08:53:19.415Z,100193.50
2023-02-03T08:55:21.633Z,100187.25
2023-02-03T08:57:24.046Z,100189.78
2023-02-03T08:59:26.628Z,100185.25
2023-02-03T09:01:30.817Z,100181.63
2023-02-03T09:03:32.962Z,100187.78
2023-02-03T09:05:35.752Z,100186.78
2023-02-03T09:07:38.035Z,100184.16
2023-02-03T09:09:40.375Z,100186.78
2023-02-03T09:11:43.396Z,100187.63
2023-02-03T09:13:46.376Z,100195.53
2023-02-03T09:15:49.904Z,100200.69
2023-02-03T09:17:52.352Z,100201.56
2023-02-03T09:19:54.358Z,100205.09
2023-02-03T09:21:57.648Z,100207.63
2023-02-03T09:24:04.113Z,100214.78
2023-02-03T09:26:08.571Z,100206.66
2023-02-03T09:28:10.933Z,100205.66
2023-02-03T09:30:14.724Z,100203.75
2023-02-03T09:32:17.229Z,100201.97
2023-02-03T09:34:20.754Z,100203.75
2023-02-03T09:36:22.917Z,100206.34
2023-02-03T09:38:26.651Z,100212.53
2023-02-03T09:40:34.440Z,100207.97
2023-02-03T09:42:42.904Z,100212.44
2023-02-03T09:44:57.607Z,100207.94
2023-02-03T09:47:04.503Z,100207.00
2023-02-03T09:49:17.186Z,100199.84
2023-02-03T09:51:30.320Z,100208.81
2023-02-03T09:53:45.415Z,100212.22
2023-02-03T09:55:48.822Z,100219.31
2023-02-03T09:57:59.167Z,100205.09
2023-02-03T10:00:13.970Z,100207.72
2023-02-03T10:02:28.306Z,100205.09
2023-02-03T10:04:40.308Z,100198.81
2023-02-03T10:06:47.332Z,100200.63
2023-02-03T10:09:07.519Z,100196.13
2023-02-03T10:11:21.595Z,100194.38
2023-02-03T10:13:34.825Z,100185.44
2023-02-03T10:16:08.538Z,100181.16
2023-02-03T10:18:14.420Z,100175.81
2023-02-03T10:20:22.112Z,100172.25
2023-02-03T10:22:31.220Z,100169.66
2023-02-03T10:24:50.167Z,100169.59
2023-02-03T10:26:55.085Z,100156.91
2023-02-03T10:29:14.274Z,100152.66
2023-02-03T10:31:20.856Z,100149.00
2023-02-03T10:33:28.669Z,100143.69
2023-02-03T10:35:52.771Z,100135.81
2023-02-03T10:37:59.509Z,100129.50
2023-02-03T10:40:02.930Z,100124.03
2023-02-03T10:42:06.772Z,100120.41
2023-02-03T10:44:13.375Z,100112.38
2023-02-03T10:46:17.710Z,100114.91
2023-02-03T10:48:19.898Z,100109.47
2023-02-03T10:50:32.032Z,100101.50
2023-02-03T10:52:36.079Z,100106.78
2023-02-03T10:54:38.585Z,100088.63
2023-02-03T10:56:41.206Z,100080.44
2023-02-03T10:58:53.031Z,100084.81
2023-02-03T11:01:07.604Z,100083.78
2023-02-03T11:03:32.539Z,100090.00
2023-02-03T11:05:34.997Z,100085.34
2023-02-03T11:07:37.745Z,100081.00
2023-02-03T11:09:43.225Z,100077.34
2023-02-03T11:11:45.494Z,100069.31
2023-02-03T11:13:53.232Z,100087.16
2023-02-03T11:16:05.234Z,100080.03
2023-02-03T11:18:44.441Z,100074.81
2023-02-03T11:20:46.633Z,100076.44
2023-02-03T11:22:49.015Z,100071.09
2023-02-03T11:24:51.251Z,100066.63
2023-02-03T11:27:05.037Z,100065.78
2023-02-03T11:29:15.252Z,100072.94
2023-02-03T11:31:22.114Z,100073.00
2023-02-03T11:33:27.958Z,100064.50
2023-02-03T11:35:32.031Z,100059.94
2023-02-03T11:37:38.935Z,100054.78
2023-02-03T11:39:41.673Z,100062.81
2023-02-03T11:41:45.970Z,100052.06
2023-02-03T11:43:48.563Z,100059.06
2023-02-03T11:45:59.859Z,100054.03
2023-02-03T11:48:08.118Z,100049.41
2023-02-03T11:50:32.131Z,100053.97
2023-02-03T11:52:48.201Z,100049.66
2023-02-03T11:55:16.759Z,100052.50
2023-02-03T11:57:18.802Z,100048.09
2023-02-03T11:59:45.851Z,100044.63
2023-02-03T12:02:09.991Z,100034.00
2023-02-03T12:04:21.389Z,100026.91
2023-02-03T12:06:35.422Z,100019.94
2023-02-03T12:08:52.524Z,100015.72
2023-02-03T12:11:36.299Z,100007.78
2023-02-03T12:14:16.879Z,99998.91
2023-02-03T12:16:38.486Z,99995.28
2023-02-03T12:19:10.663Z,99986.53
2023-02-03T12:21:23.858Z,99992.91
2023-02-03T12:23:40.531Z,99981.28
2023-02-03T12:25:57.985Z,99981.09
2023-02-03T12:28:33.344Z,99977.63
2023-02-03T12:30:43.845Z,99977.66
2023-02-03T12:32:54.675Z,99971.47
2023-02-03T12:35:06.249Z,99975.91
2023-02-03T12:37:22.589Z,99971.56
2023-02-03T12:40:05.043Z,99975.34
2023-02-03T12:42:22.027Z,99971.03
2023-02-03T12:44:43.930Z,99971.13
2023-02-03T12:46:53.761Z,99959.47
2023-02-03T12:49:17.309Z,99947.91
2023-02-03T12:51:46.750Z,99937.38
2023-02-03T12:53:55.463Z,99950.91
2023-02-03T12:56:07.814Z,99949.22
2023-02-03T12:58:25.257Z,99938.38
2023-02-03T13:00:43.453Z,99937.44
2023-02-03T13:03:14.770Z,99916.34
2023-02-03T13:05:22.773Z,99922.50
2023-02-03T13:07:40.916Z,99918.00
2023-02-03T13:09:59.132Z,99911.72
2023-02-03T13:12:07.003Z,99895.81
2023-02-03T13:14:28.675Z,99891.25
2023-02-03T13:16:36.372Z,99888.75
2023-02-03T13:18:42.983Z,99895.81
2023-02-03T13:20:45.784Z,99885.06
2023-02-03T13:22:48.589Z,99880.63
2023-02-03T13:25:18.297Z,99881.56
2023-02-03T13:27:35.208Z,99884.41
2023-02-03T13:29:54.174Z,99876.47
2023-02-03T13:32:02.116Z,99869.47
2023-02-03T13:34:32.185Z,99873.91
2023-02-03T13:37:07.268Z,99853.56
2023-02-03T13:39:15.598Z,99850.06
2023-02-03T13:41:28.796Z,99843.75
2023-02-03T13:43:44.919Z,99850.94
2023-02-03T13:45:52.921Z,99845.59
2023-02-03T13:48:02.272Z,99842.25
2023-02-03T13:50:10.341Z,99836.91
2023-02-03T13:52:28.809Z,99829.97
2023-02-03T13:54:37.728Z,99829.19
2023-02-03T13:56:41.249Z,99829.06
2023-02-03T13:58:43.308Z,99810.44
2023-02-03T14:00:45.611Z,99817.41
2023-02-03T14:02:55.843Z,99804.91
2023-02-03T14:04:59.407Z,99807.59
2023-02-03T14:07:03.806Z,99806.72
2023-02-03T14:09:44.522Z,99802.50
2023-02-03T14:11:49.826Z,99795.41
2023-02-03T14:13:52.375Z,99779.69
2023-02-03T14:16:25.305Z,99786.94
2023-02-03T14:18:32.972Z,99795.16
2023-02-03T14:20:40.802Z,99774.66
2023-02-03T14:22:43.225Z,99783.50
2023-02-03T14:24:49.174Z,99788.00
2023-02-03T14:26:54.454Z,99771.34
2023-02-03T14:28:57.032Z,99778.53
2023-02-03T14:31:03.316Z,99774.91
2023-02-03T14:33:05.769Z,99777.59
2023-02-03T14:35:17.698Z,99773.25
2023-02-03T14:37:19.926Z,99775.75
2023-02-03T14:39:36.566Z,99752.72
2023-02-03T14:42:01.674Z,99763.53
2023-02-03T14:44:37.836Z,99754.72
2023-02-03T14:46:58.095Z,99755.56
2023-02-03T14:49:17.701Z,99747.72
2023-02-03T14:51:51.871Z,99741.34
2023-02-03T14:53:59.681Z,99745.03
2023-02-03T14:56:21.354Z,99729.84
2023-02-03T14:58:36.562Z,99723.63
2023-02-03T15:00:38.949Z,99727.28
2023-02-03T15:03:14.320Z,99724.69
2023-02-03T15:05:35.073Z,99718.56
2023-02-03T15:07:48.482Z,99726.69
2023-02-03T15:09:52.035Z,99719.66
2023-02-03T15:11:54.423Z,99717.75
2023-02-03T15:14:16.553Z,99721.38
2023-02-03T15:16:23.228Z,99717.84
2023-02-03T15:18:39.361Z,99704.50
2023-02-03T15:20:42.069Z,99696.34
2023-02-03T15:22:44.194Z,99699.09
2023-02-03T15:24:46.422Z,99695.63
2023-02-03T15:26:51.282Z,99694.03
2023-02-03T15:28:58.441Z,99692.22
2023-02-03T15:31:12.495Z,99700.28
2023-02-03T15:33:21.621Z,99684.16
2023-02-03T15:35:27.326Z,99686.69
2023-02-03T15:37:54.403Z,99682.44
2023-02-03T15:40:07.794Z,99682.63
2023-02-03T15:42:35.421Z,99682.50
2023-02-03T15:44:47.857Z,99670.97
2023-02-03T15:46:52.879Z,99675.38
2023-02-03T15:49:09.518Z,99663.03
2023-02-03T15:51:24.265Z,99657.75
2023-02-03T15:53:47.605Z,99654.09
2023-02-03T15:55:57.463Z,99654.09
2023-02-03T15:58:00.490Z,99653.28
2023-02-03T16:00:40.404Z,99648.88
2023-02-03T16:02:46.678Z,99648.03
2023-02-03T16:04:52.582Z,99639.09
2023-02-03T16:06:58.959Z,99631.16
2023-02-03T16:09:01.207Z,99634.84
2023-02-03T16:11:22.081Z,99628.66
2023-02-03T16:13:26.502Z,99630.47
2023-02-03T16:15:29.172Z,99629.66
2023-02-03T16:17:36.054Z,99618.13
2023-02-03T16:19:43.747Z,99611.94
2023-02-03T16:23:00.791Z,99614.78
2023-02-03T16:25:23.243Z,99602.56
2023-02-03T16:27:30.406Z,99588.22
2023-02-03T16:29:54.945Z,99595.28
2023-02-03T16:32:15.937Z,99590.81
2023-02-03T16:34:38.577Z,99578.44
2023-02-03T16:37:01.258Z,99566.94
2023-02-03T16:39:29.751Z,99572.38
2023-02-03T16:41:54.065Z,99556.38
2023-02-03T16:44:14.703Z,99565.22
2023-02-03T16:46:35.685Z,99565.28
2023-02-03T16:48:56.515Z,99551.84
2023-02-03T16:51:07.100Z,99544.81
2023-02-03T16:53:14.986Z,99543.09
2023-02-03T16:55:17.466Z,99533.25
2023-02-03T16:57:21.788Z,99526.31
2023-02-03T16:59:24.329Z,99530.69
2023-02-03T17:01:26.746Z,99521.13
2023-02-03T17:03:30.267Z,99514.00
2023-02-03T17:05:36.588Z,99514.75
2023-02-03T17:07:39.027Z,99500.59
2023-02-03T17:09:48.651Z,99503.34
2023-02-03T17:11:51.674Z,99500.59
2023-02-03T17:13:54.105Z,99491.97
2023-02-03T17:15:57.569Z,99491.09
2023-02-03T17:18:00.167Z,99492.91
2023-02-03T17:20:02.630Z,99491.16
2023-02-03T17:22:05.111Z,99491.03
2023-02-03T17:24:07.776Z,99484.78
2023-02-03T17:26:10.641Z,99467.91
2023-02-03T17:28:15.270Z,99467.25
2023-02-03T17:30:17.636Z,99465.41
2023-02-03T17:32:19.808Z,99458.41
2023-02-03T17:34:22.555Z,99455.72
2023-02-03T17:36:24.850Z,99463.66
2023-02-03T17:38:29.136Z,99442.28
2023-02-03T17:54:31.885Z,99401.44
2023-02-03T17:56:35.887Z,99401.44
2023-02-03T17:58:38.754Z,99393.38
2023-02-03T18:00:41.620Z,99398.59
2023-02-03T18:02:50.101Z,99382.59
2023-02-03T18:04:54.989Z,99396.88
2023-02-03T18:06:57.156Z,99390.44
2023-02-03T18:09:02.228Z,99390.56
2023-02-03T18:11:05.301Z,99381.81
2023-02-03T18:13:07.774Z,99368.78
2023-02-03T18:15:10.350Z,99374.91
2023-02-03T18:17:12.696Z,99366.13
2023-02-03T18:19:15.962Z,99366.97
2023-02-03T18:21:18.234Z,99361.66
2023-02-03T18:23:20.909Z,99358.13
2023-02-03T18:25:25.995Z,99355.53
2023-02-03T18:27:28.029Z,99346.72
2023-02-03T18:29:30.525Z,99343.28
2023-02-03T18:31:33.341Z,99340.56
2023-02-03T18:33:36.827Z,99338.81
2023-02-03T18:35:39.306Z,99329.97
2023-02-03T18:37:41.592Z,99314.00
2023-02-03T18:39:43.850Z,99320.28
2023-02-03T18:41:45.833Z,99314.00
2023-02-03T18:43:51.649Z,99287.41
2023-02-03T18:45:54.509Z,99277.59
2023-02-03T18:47:57.008Z,99288.16
2023-02-03T18:49:59.378Z,99288.97
2023-02-03T18:52:01.785Z,99297.94
2023-02-03T18:54:04.576Z,99287.25
2023-02-03T18:56:15.213Z,99274.84
2023-02-03T18:58:17.906Z,99289.97
2023-02-03T19:00:23.935Z,99284.50
2023-02-03T19:02:26.213Z,99271.22
2023-02-03T19:04:28.481Z,99255.25
2023-02-03T19:06:32.712Z,99257.88
2023-02-03T19:08:34.999Z,99255.03
2023-02-03T19:10:37.237Z,99239.13
2023-02-03T19:12:39.848Z,99238.34
2023-02-03T19:14:42.088Z,99239.06
2023-02-03T19:16:44.667Z,99237.19
2023-02-03T19:18:47.431Z,99243.50
2023-02-03T19:20:49.392Z,99217.59
2023-02-03T19:22:51.786Z,99217.72
2023-02-03T19:24:54.167Z,99224.16
2023-02-03T19:26:58.163Z,99201.13
2023-02-03T19:29:01.007Z,99218.06
2023-02-03T19:31:08.908Z,99223.34
2023-02-03T19:33:11.593Z,99223.47
2023-02-03T19:35:15.629Z,99234.09
2023-02-03T19:37:17.820Z,99232.25
2023-02-03T19:39:21.375Z,99224.25
2023-02-03T19:41:26.067Z,99201.09
2023-02-03T19:43:28.894Z,99217.28
2023-02-03T19:45:31.262Z,99200.22
2023-02-03T19:47:34.226Z,99206.53
2023-02-03T19:49:37.150Z,99191.38
2023-02-03T19:51:40.151Z,99200.28
2023-02-03T19:53:42.306Z,99177.13
2023-02-03T19:55:46.300Z,99183.34
2023-02-03T19:57:48.618Z,99196.63
2023-02-03T19:59:51.379Z,99185.19
2023-02-03T20:01:53.931Z,99183.28
2023-02-03T20:03:58.548Z,99186.75
2023-02-03T20:06:04.143Z,99180.56
2023-02-03T20:08:07.431Z,99170.75
2023-02-03T20:10:10.071Z,99183.19
2023-02-03T20:12:12.926Z,99193.25
2023-02-03T20:14:16.833Z,99164.63
2023-02-03T20:16:19.194Z,99179.00
2023-02-03T20:18:21.853Z,99155.03
2023-02-03T20:20:24.449Z,99136.22
2023-02-03T20:22:26.712Z,99168.94
2023-02-03T20:24:28.739Z,99177.94
2023-02-03T20:26:31.984Z,99156.72
2023-02-03T20:28:33.787Z,99157.59
2023-02-03T20:30:35.716Z,99154.88
2023-02-03T20:32:37.623Z,99154.84
2023-02-03T20:34:39.863Z,99147.72
2023-02-03T20:36:42.527Z,99159.22
2023-02-03T20:38:47.264Z,99159.13
2023-02-03T20:40:49.433Z,99146.63
2023-02-03T20:42:54.374Z,99149.53
2023-02-03T20:44:59.445Z,99148.47
2023-02-03T20:47:02.218Z,99141.38
2023-02-03T20:49:07.345Z,99144.91
2023-02-03T20:51:18.049Z,99135.09
2023-02-03T20:53:22.659Z,99125.41
2023-02-03T20:55:24.788Z,99123.63
2023-02-03T20:57:27.305Z,99125.41
2023-02-03T20:59:30.298Z,99098.66
2023-02-03T21:01:33.445Z,99102.31
2023-02-03T21:03:54.049Z,99097.81
2023-02-03T21:05:56.659Z,99102.19
2023-02-03T21:07:58.877Z,99100.47
2023-02-03T21:10:11.524Z,99089.66
2023-02-03T21:12:15.213Z,99082.53
2023-02-03T21:14:23.850Z,99083.63
2023-02-03T21:16:35.360Z,99090.78
2023-02-03T21:18:40.087Z,99089.75
2023-02-03T21:20:42.904Z,99083.66
2023-02-03T21:22:44.909Z,99069.56
2023-02-03T21:24:56.706Z,99067.06
2023-02-03T21:27:01.254Z,99063.53
2023-02-03T21:29:06.210Z,99062.69
2023-02-03T21:31:20.695Z,99063.75
2023-02-03T21:33:41.534Z,99059.25
2023-02-03T21:35:43.734Z,99057.53
2023-02-03T21:37:45.990Z,99055.75
2023-02-03T21:39:51.352Z,99056.59
2023-02-03T21:41:53.761Z,99058.47
2023-02-03T21:44:00.054Z,99049.56
2023-02-03T21:46:02.643Z,99052.34
2023-02-03T21:48:20.304Z,99041.56
2023-02-03T21:50:34.207Z,99056.66
2023-02-03T21:52:36.505Z,99058.13
2023-02-03T21:54:44.525Z,99046.63
2023-02-03T21:56:46.874Z,99043.28
2023-02-03T21:58:51.357Z,99043.19
2023-02-03T22:00:54.725Z,99042.22
2023-02-03T22:03:00.012Z,99029.78
2023-02-03T22:05:14.709Z,99035.84
2023-02-03T22:07:20.353Z,99034.91
2023-02-03T22:09:24.844Z,99033.13
2023-02-03T22:11:29.709Z,99035.03
2023-02-03T22:13:32.112Z,99031.41
2023-02-03T22:15:34.288Z,99032.16
2023-02-03T22:17:36.408Z,99030.28
2023-02-03T22:19:38.873Z,99037.38
2023-02-03T22:21:41.274Z,99039.22
2023-02-03T22:23:44.240Z,99038.38
2023-02-03T22:25:47.237Z,99045.38
2023-02-03T22:27:50.800Z,99040.75
2023-02-03T22:29:56.541Z,99037.88
2023-02-03T22:31:58.631Z,99032.47
2023-02-03T22:34:00.992Z,99033.56
2023-02-03T22:36:06.869Z,99024.50
2023-02-03T22:38:09.218Z,99024.44
2023-02-03T22:40:12.999Z,99022.84
2023-02-03T22:42:16.194Z,99017.34
2023-02-03T22:44:19.132Z,99023.63
2023-02-03T22:46:21.568Z,99026.34
2023-02-03T22:48:24.214Z,99021.13
2023-02-03T22:50:35.458Z,99029.19
2023-02-03T22:52:38.649Z,99030.66
2023-02-03T22:54:43.207Z,99031.41
2023-02-03T22:56:46.467Z,99027.00
2023-02-03T22:58:48.810Z,99033.19
2023-02-03T23:00:51.191Z,99033.97
2023-02-03T23:02:54.312Z,99026.16
2023-02-03T23:04:56.631Z,99029.00
2023-02-03T23:07:01.930Z,99019.91
2023-02-03T23:09:07.099Z,99030.81
2023-02-03T23:11:09.319Z,99020.16
2023-02-03T23:13:11.510Z,99024.44
2023-02-03T23:15:14.898Z,99021.78
2023-02-03T23:17:17.825Z,99021.78
2023-02-03T23:19:19.965Z,99020.94
2023-02-03T23:21:22.077Z,99019.03
2023-02-03T23:23:24.538Z,99019.13
2023-02-03T23:25:26.795Z,99019.88
2023-02-03T23:27:35.197Z,99016.47
2023-02-03T23:29:38.440Z,99023.50
2023-02-03T23:31:40.879Z,99022.66
2023-02-03T23:34:06.284Z,99012.94
2023-02-03T23:36:08.966Z,99018.25
2023-02-03T23:38:11.381Z,99021.78
2023-02-03T23:40:13.872Z,99013.78
2023-02-03T23:42:16.032Z,99018.25
2023-02-03T23:44:18.321Z,99015.59
2023-02-03T23:46:22.876Z,99012.13
2023-02-03T23:48:25.224Z,99013.81
2023-02-03T23:50:27.289Z,99015.59
2023-02-03T23:52:35.847Z,99018.25
2023-02-03T23:54:38.117Z,99020.13
2023-02-03T23:56:40.513Z,99013.81
2023-02-03T23:58:43.548Z,99010.47
